METAR KSCH 210848Z AUTO 22005KT 10SM BKN038 M01/M06 A2999 A02